Time;durP1;ratioP1;P1;durP2;ratioP2;P2;SDS_P1;SDS_P2;PMS_P1;PMS_P2;Temp;Humidity;BMP_temperature;BMP_pressure;BME280_temperature;BME280_humidity;BME280_pressure;Samples;Min_cycle;Max_cycle;Signal;HPM_P1;HPM_P2
2021/12/26 00:02:16;;;;;;;3.33;2.40;;;-2.00;57.10;;;;;;5093078;28;20046;-87
2021/12/26 00:04:41;;;;;;;3.78;2.50;;;-1.90;57.60;;;;;;5105288;28;20024;-88
2021/12/26 00:07:07;;;;;;;4.00;2.97;;;-1.90;57.10;;;;;;5093064;28;20047;-86
2021/12/26 00:09:32;;;;;;;4.97;3.00;;;-2.00;56.80;;;;;;5097469;28;20652;-86
2021/12/26 00:12:01;;;;;;;3.50;2.70;;;-2.00;57.60;;;;;;5084690;28;20351;-87
2021/12/26 00:14:27;;;;;;;4.78;2.53;;;-1.90;57.90;;;;;;5092686;28;20032;-88
2021/12/26 00:16:52;;;;;;;3.80;2.70;;;-1.80;58.00;;;;;;5087018;28;20108;-88
2021/12/26 00:19:18;;;;;;;3.95;2.80;;;-1.80;57.70;;;;;;5073583;28;20395;-88
2021/12/26 00:21:43;;;;;;;4.00;2.70;;;-1.60;58.50;;;;;;5097868;28;20028;-88
2021/12/26 00:24:09;;;;;;;2.65;2.22;;;-1.60;58.10;;;;;;5092714;28;20016;-88
2021/12/26 00:26:37;;;;;;;2.92;2.55;;;-1.50;58.30;;;;;;5089602;28;20032;-87
2021/12/26 00:29:04;;;;;;;3.65;2.60;;;-1.40;57.70;;;;;;5093227;28;20027;-87
2021/12/26 00:31:31;;;;;;;2.85;2.25;;;-1.40;56.60;;;;;;5091725;28;20151;-88
2021/12/26 00:33:56;;;;;;;3.03;2.30;;;-1.30;57.80;;;;;;5105149;28;20436;-88
2021/12/26 00:36:22;;;;;;;2.88;2.30;;;-1.20;58.00;;;;;;5113279;28;20173;-88
2021/12/26 00:38:48;;;;;;;3.83;2.40;;;-1.20;57.50;;;;;;5100423;28;20028;-91
2021/12/26 00:41:13;;;;;;;3.08;2.63;;;-1.20;57.80;;;;;;5100268;28;20028;-91
2021/12/26 00:43:39;;;;;;;3.83;2.60;;;-1.10;57.70;;;;;;5102265;28;20081;-91
2021/12/26 00:46:04;;;;;;;3.55;2.85;;;-1.20;56.60;;;;;;5105294;28;20024;-92
2021/12/26 00:48:30;;;;;;;3.22;2.30;;;-1.40;55.80;;;;;;5105243;28;20024;-92
2021/12/26 00:50:56;;;;;;;3.05;2.40;;;-1.50;56.20;;;;;;5116650;28;20384;-92
2021/12/26 00:53:22;;;;;;;3.42;2.20;;;-1.50;57.70;;;;;;5100568;28;20046;-91
2021/12/26 00:55:48;;;;;;;3.47;2.30;;;-1.40;57.90;;;;;;5099187;28;20089;-91
2021/12/26 00:58:14;;;;;;;3.63;2.33;;;-1.30;58.10;;;;;;5100355;28;20028;-91
2021/12/26 01:00:43;;;;;;;3.45;2.30;;;-1.30;57.70;;;;;;5103174;28;20043;-91
2021/12/26 01:03:11;;;;;;;3.42;2.63;;;-1.30;57.60;;;;;;5099287;28;20064;-90
2021/12/26 01:10:52;;;;;;;3.15;2.53;;;-1.50;56.50;;;;;;5809945;23;20074;-91
2021/12/26 01:13:34;;;;;;;3.05;2.60;;;-1.60;56.60;;;;;;5020888;28;20030;-91
2021/12/26 01:16:03;;;;;;;3.17;2.50;;;-1.80;56.00;;;;;;4987776;28;20035;-91
2021/12/26 01:18:33;;;;;;;3.80;2.85;;;-1.90;56.20;;;;;;4999669;28;20041;-88
2021/12/26 01:21:06;;;;;;;2.70;2.50;;;-1.90;56.80;;;;;;5002152;28;20046;-85
2021/12/26 01:23:33;;;;;;;5.00;2.80;;;-1.90;57.00;;;;;;4994329;28;20030;-85
2021/12/26 01:25:59;;;;;;;3.35;2.40;;;-1.90;57.50;;;;;;4992994;28;20084;-87
2021/12/26 01:28:28;;;;;;;4.65;2.72;;;-1.90;57.60;;;;;;5000387;28;20038;-87
2021/12/26 01:30:55;;;;;;;3.28;2.38;;;-1.80;57.50;;;;;;4989460;28;20054;-87
2021/12/26 01:33:21;;;;;;;3.25;2.35;;;-1.80;57.70;;;;;;4990954;28;20024;-88
2021/12/26 01:35:47;;;;;;;2.53;2.17;;;-1.90;56.60;;;;;;5005428;28;20041;-90
2021/12/26 01:38:14;;;;;;;3.42;2.50;;;-1.80;57.70;;;;;;5012951;28;20057;-90
2021/12/26 01:40:47;;;;;;;3.83;2.85;;;-1.70;58.30;;;;;;5014763;28;20509;-90
2021/12/26 01:43:14;;;;;;;3.53;2.47;;;-1.70;57.60;;;;;;5034301;28;20036;-88
2021/12/26 01:45:41;;;;;;;3.30;2.60;;;-1.70;57.10;;;;;;5028094;28;20026;-90
2021/12/26 01:48:07;;;;;;;3.75;2.70;;;-1.70;57.40;;;;;;5017053;28;20048;-90
2021/12/26 01:50:34;;;;;;;3.15;2.17;;;-1.80;56.70;;;;;;5004905;28;20035;-89
2021/12/26 01:53:00;;;;;;;4.32;2.75;;;-1.70;57.40;;;;;;4995265;28;20061;-90
2021/12/26 01:55:38;;;;;;;3.03;2.30;;;-1.70;56.80;;;;;;5004225;28;20026;-89
2021/12/26 01:58:05;;;;;;;3.25;2.30;;;-1.60;57.90;;;;;;5008513;28;20018;-89
2021/12/26 02:00:30;;;;;;;3.25;2.20;;;-1.50;58.50;;;;;;5009350;28;20022;-89
2021/12/26 02:02:56;;;;;;;3.35;2.50;;;-1.40;58.20;;;;;;5034760;28;20040;-89
2021/12/26 02:05:22;;;;;;;2.45;2.22;;;-1.40;57.60;;;;;;5031346;28;20030;-90
2021/12/26 02:07:48;;;;;;;3.28;2.50;;;-1.40;58.00;;;;;;5007505;28;20077;-90
2021/12/26 02:10:14;;;;;;;3.15;2.53;;;-1.60;56.80;;;;;;4991566;28;20026;-89
2021/12/26 02:12:41;;;;;;;3.40;2.67;;;-1.60;57.00;;;;;;4992643;28;20041;-90
2021/12/26 02:15:07;;;;;;;2.97;2.47;;;-1.60;57.10;;;;;;4990471;28;20517;-91
2021/12/26 02:17:33;;;;;;;5.00;2.45;;;-1.60;57.40;;;;;;4992577;28;20041;-90
2021/12/26 02:20:19;;;;;;;3.95;2.40;;;-1.50;58.10;;;;;;4996266;28;20038;-91
2021/12/26 02:22:49;;;;;;;3.22;2.10;;;-1.50;57.70;;;;;;5011340;28;20049;-89
2021/12/26 02:25:31;;;;;;;3.83;2.20;;;-1.50;58.00;;;;;;5011109;28;20052;-90
2021/12/26 02:27:56;;;;;;;2.55;2.33;;;-1.40;58.00;;;;;;4972054;28;20031;-89
2021/12/26 02:30:23;;;;;;;4.07;2.85;;;-1.40;57.90;;;;;;4998975;28;20092;-89
2021/12/26 02:32:50;;;;;;;3.00;2.40;;;-1.50;56.70;;;;;;5005988;28;20041;-90
2021/12/26 02:35:21;;;;;;;3.42;2.50;;;-1.60;56.80;;;;;;5005303;28;20508;-89
2021/12/26 02:37:47;;;;;;;2.67;2.38;;;-1.70;56.80;;;;;;4995133;28;20030;-89
2021/12/26 02:40:14;;;;;;;3.47;2.50;;;-1.70;57.10;;;;;;4994067;28;20034;-89
2021/12/26 02:42:40;;;;;;;2.92;2.30;;;-1.80;56.40;;;;;;5010562;28;20030;-90
2021/12/26 02:45:06;;;;;;;3.60;2.40;;;-1.80;56.90;;;;;;5016453;28;20034;-90
2021/12/26 02:47:38;;;;;;;3.50;2.40;;;-1.90;56.60;;;;;;5025287;28;20081;-90
2021/12/26 02:50:07;;;;;;;3.40;2.72;;;-1.80;57.00;;;;;;5037879;28;20057;-89
2021/12/26 02:52:32;;;;;;;2.65;2.22;;;-1.80;56.70;;;;;;5039323;28;20018;-90
2021/12/26 02:54:59;;;;;;;3.10;2.40;;;-1.80;57.20;;;;;;5040502;28;20041;-90
2021/12/26 02:57:25;;;;;;;3.03;2.30;;;-1.80;56.90;;;;;;5022789;28;20022;-90
2021/12/26 02:59:50;;;;;;;3.60;2.50;;;-1.80;57.30;;;;;;5021028;28;20066;-90
2021/12/26 03:02:16;;;;;;;3.17;2.35;;;-1.90;55.80;;;;;;5018310;28;20018;-89
2021/12/26 03:04:41;;;;;;;4.15;2.90;;;-1.90;55.80;;;;;;5018258;28;20010;-89
2021/12/26 03:07:07;;;;;;;4.70;2.78;;;-1.90;56.90;;;;;;5014468;28;20441;-89
2021/12/26 03:09:43;;;;;;;2.67;2.22;;;-1.90;55.60;;;;;;5000061;28;20026;-90
2021/12/26 03:12:09;;;;;;;3.92;2.85;;;-2.00;55.90;;;;;;5012012;28;20038;-89
2021/12/26 03:14:35;;;;;;;3.67;2.67;;;-2.00;56.40;;;;;;5010129;28;20053;-90
2021/12/26 03:17:01;;;;;;;4.03;2.53;;;-2.10;56.40;;;;;;4997294;28;20041;-90
2021/12/26 03:19:36;;;;;;;2.90;2.35;;;-2.00;56.60;;;;;;4998108;28;20057;-90
2021/12/26 03:22:02;;;;;;;3.78;2.97;;;-2.10;56.40;;;;;;4996913;28;20066;-90
2021/12/26 03:24:30;;;;;;;3.28;2.60;;;-2.10;56.10;;;;;;5008437;28;20034;-90
2021/12/26 03:27:00;;;;;;;2.90;2.42;;;-2.10;56.30;;;;;;4981726;28;20031;-88
2021/12/26 03:29:26;;;;;;;3.78;2.60;;;-2.10;56.80;;;;;;4978022;28;20022;-87
2021/12/26 03:31:51;;;;;;;2.95;2.33;;;-2.10;57.10;;;;;;5003244;28;20033;-88
2021/12/26 03:34:17;;;;;;;3.70;2.78;;;-2.00;57.30;;;;;;5015140;28;20045;-88
2021/12/26 03:36:42;;;;;;;2.50;2.30;;;-2.00;56.50;;;;;;4996975;28;20042;-89
2021/12/26 03:39:08;;;;;;;4.03;2.75;;;-1.90;56.80;;;;;;4999286;28;20034;-88
2021/12/26 03:41:34;;;;;;;3.35;2.50;;;-1.90;56.40;;;;;;4977087;28;20034;-90
2021/12/26 03:44:00;;;;;;;4.18;2.97;;;-2.00;56.00;;;;;;4974670;28;20122;-89
2021/12/26 03:46:26;;;;;;;4.78;2.80;;;-2.10;55.70;;;;;;4981859;28;20053;-89
2021/12/26 03:48:52;;;;;;;2.60;2.40;;;-2.10;56.30;;;;;;4994845;28;20038;-90
2021/12/26 03:51:19;;;;;;;2.90;2.10;;;-2.10;56.80;;;;;;4994491;28;20048;-88
2021/12/26 03:53:45;;;;;;;3.05;2.60;;;-2.00;57.00;;;;;;5012151;28;20034;-90
2021/12/26 03:56:11;;;;;;;3.22;2.50;;;-2.10;56.40;;;;;;5003758;28;20039;-89
2021/12/26 03:58:38;;;;;;;3.40;2.30;;;-2.00;56.80;;;;;;5008320;28;20026;-89
2021/12/26 04:01:03;;;;;;;2.90;2.60;;;-2.00;57.20;;;;;;5014109;28;20037;-89
2021/12/26 04:03:29;;;;;;;3.63;2.40;;;-1.90;56.80;;;;;;5014664;28;20018;-89
2021/12/26 04:05:55;;;;;;;3.22;2.40;;;-1.90;57.20;;;;;;4999148;28;20015;-89
2021/12/26 04:08:21;;;;;;;2.72;2.30;;;-2.00;56.00;;;;;;5003287;28;20117;-90
2021/12/26 04:10:46;;;;;;;3.13;2.35;;;-2.00;56.50;;;;;;5004942;28;20040;-90
2021/12/26 04:13:12;;;;;;;2.90;2.42;;;-2.00;56.40;;;;;;5014484;28;20021;-89
2021/12/26 04:15:38;;;;;;;3.15;2.40;;;-2.00;56.90;;;;;;5004524;28;20065;-90
2021/12/26 04:18:04;;;;;;;3.88;2.60;;;-2.00;56.00;;;;;;4995432;28;20029;-90
2021/12/26 04:20:30;;;;;;;2.90;2.47;;;-2.00;56.10;;;;;;4995698;28;20030;-90
2021/12/26 04:22:57;;;;;;;3.33;2.50;;;-2.00;56.20;;;;;;5000996;28;20073;-90
2021/12/26 04:25:22;;;;;;;3.08;2.50;;;-2.00;56.40;;;;;;5010173;28;20026;-90
2021/12/26 04:27:49;;;;;;;3.42;2.38;;;-2.10;55.60;;;;;;4995009;28;20022;-88
2021/12/26 04:30:17;;;;;;;3.67;2.30;;;-2.10;55.90;;;;;;4997226;28;20010;-89
2021/12/26 04:32:43;;;;;;;3.03;2.30;;;-2.10;56.30;;;;;;5019055;28;20015;-89
2021/12/26 04:35:27;;;;;;;3.17;2.30;;;-2.10;56.30;;;;;;5057237;22;21053;-90
2021/12/26 04:37:53;;;;;;;2.65;2.28;;;-2.20;56.30;;;;;;5015778;28;20034;-83
2021/12/26 04:40:19;;;;;;;5.38;3.22;;;-2.10;56.40;;;;;;4993970;28;20049;-90
2021/12/26 04:42:46;;;;;;;2.20;2.00;;;-2.10;56.10;;;;;;5003881;28;20022;-90
2021/12/26 04:45:12;;;;;;;3.35;2.60;;;-2.10;56.90;;;;;;5004675;28;20031;-91
2021/12/26 04:47:39;;;;;;;2.75;2.30;;;-2.10;56.30;;;;;;5006383;28;20085;-91
2021/12/26 04:50:08;;;;;;;2.85;2.35;;;-2.10;56.30;;;;;;5013302;28;20018;-90
2021/12/26 04:52:34;;;;;;;3.50;2.50;;;-2.10;56.30;;;;;;5005607;28;20023;-90
2021/12/26 04:55:02;;;;;;;2.58;2.28;;;-2.10;56.30;;;;;;4998934;28;20046;-90
2021/12/26 04:57:28;;;;;;;3.03;2.40;;;-2.00;56.80;;;;;;5024736;28;20078;-91
2021/12/26 04:59:53;;;;;;;2.72;2.30;;;-2.10;55.60;;;;;;5025605;28;20089;-90
2021/12/26 05:02:19;;;;;;;3.13;2.67;;;-2.10;55.90;;;;;;5009541;28;20073;-91
2021/12/26 05:04:45;;;;;;;2.78;2.38;;;-2.10;56.30;;;;;;5005301;28;20026;-89
2021/12/26 05:07:10;;;;;;;3.15;2.30;;;-2.10;56.60;;;;;;5005454;28;20084;-90
2021/12/26 05:09:36;;;;;;;3.25;2.22;;;-2.10;56.00;;;;;;5008553;28;20022;-90
2021/12/26 05:12:01;;;;;;;2.83;2.45;;;-2.10;56.00;;;;;;4998646;28;20054;-90
2021/12/26 05:14:27;;;;;;;2.75;2.25;;;-2.10;55.80;;;;;;4993906;28;20529;-90
2021/12/26 05:16:52;;;;;;;3.40;2.40;;;-2.00;56.70;;;;;;5001451;28;20030;-90
2021/12/26 05:19:18;;;;;;;3.65;2.45;;;-2.00;56.00;;;;;;5007793;28;20018;-90
2021/12/26 05:21:43;;;;;;;3.45;2.70;;;-2.10;55.80;;;;;;5002608;28;20425;-89
2021/12/26 05:24:09;;;;;;;2.50;2.28;;;-2.10;55.90;;;;;;4991675;28;20030;-89
2021/12/26 05:26:34;;;;;;;2.65;2.28;;;-2.10;56.30;;;;;;4992019;28;20089;-87
2021/12/26 05:29:00;;;;;;;3.17;2.28;;;-2.10;55.70;;;;;;4992089;28;20504;-88
2021/12/26 05:31:26;;;;;;;2.80;2.28;;;-2.10;55.60;;;;;;4981517;28;20529;-87
2021/12/26 05:33:51;;;;;;;2.75;2.22;;;-2.10;56.20;;;;;;4976031;28;20025;-88
2021/12/26 05:36:17;;;;;;;3.80;2.60;;;-2.00;56.50;;;;;;4999473;28;20397;-86
2021/12/26 05:38:42;;;;;;;3.30;2.30;;;-2.00;56.40;;;;;;5011553;28;20038;-88
2021/12/26 05:41:08;;;;;;;3.88;2.70;;;-2.00;56.20;;;;;;5006172;28;20045;-88
2021/12/26 05:43:34;;;;;;;2.65;2.22;;;-2.00;55.90;;;;;;5004052;28;20098;-89
2021/12/26 05:45:59;;;;;;;3.53;2.17;;;-2.00;56.60;;;;;;5001096;28;20088;-88
2021/12/26 05:48:25;;;;;;;2.50;2.20;;;-1.90;57.00;;;;;;4993871;28;20030;-89
2021/12/26 05:50:52;;;;;;;2.72;2.05;;;-2.00;55.90;;;;;;4994437;28;20035;-90
2021/12/26 05:53:18;;;;;;;2.65;2.30;;;-2.00;56.30;;;;;;4999575;28;20037;-90
2021/12/26 05:55:44;;;;;;;3.70;2.40;;;-2.00;56.40;;;;;;5011525;28;20033;-90
2021/12/26 05:58:09;;;;;;;4.25;2.40;;;-2.00;56.10;;;;;;5000438;28;20512;-89
2021/12/26 06:00:35;;;;;;;2.85;2.40;;;-1.90;56.60;;;;;;5001354;28;20057;-88
2021/12/26 06:03:00;;;;;;;4.40;2.75;;;-2.00;56.10;;;;;;4999662;28;20019;-90
2021/12/26 06:05:26;;;;;;;4.32;2.20;;;-2.00;56.40;;;;;;5003463;28;20033;-90
2021/12/26 06:07:52;;;;;;;3.42;2.30;;;-1.90;56.50;;;;;;5004443;28;20035;-91
2021/12/26 06:10:17;;;;;;;3.25;2.30;;;-2.00;56.00;;;;;;4992748;28;20441;-90
2021/12/26 06:12:43;;;;;;;3.13;2.55;;;-1.90;56.70;;;;;;4994802;28;20045;-90
2021/12/26 06:15:09;;;;;;;2.53;2.10;;;-2.00;55.60;;;;;;4993097;28;20014;-90
2021/12/26 06:17:34;;;;;;;4.57;2.63;;;-2.00;56.00;;;;;;4992204;28;20038;-91
2021/12/26 06:20:00;;;;;;;3.00;2.20;;;-2.00;56.40;;;;;;4992477;28;20043;-91
2021/12/26 06:22:25;;;;;;;2.45;2.20;;;-1.80;57.00;;;;;;4992278;28;20081;-90
2021/12/26 06:24:51;;;;;;;2.67;2.10;;;-1.70;57.00;;;;;;4994219;28;20576;-91
2021/12/26 06:27:16;;;;;;;3.10;2.30;;;-1.70;56.80;;;;;;4996977;28;20022;-89
2021/12/26 06:29:42;;;;;;;2.90;2.42;;;-1.60;57.00;;;;;;5001292;28;20023;-90
2021/12/26 06:32:07;;;;;;;3.50;2.20;;;-1.50;57.30;;;;;;4996850;28;20026;-90
2021/12/26 06:34:33;;;;;;;3.03;2.28;;;-1.50;55.70;;;;;;4979007;28;20034;-90
2021/12/26 06:36:59;;;;;;;2.30;2.10;;;-1.60;56.20;;;;;;4994607;28;20042;-90
2021/12/26 06:39:24;;;;;;;2.95;2.20;;;-1.70;56.00;;;;;;5005137;28;20026;-89
2021/12/26 06:41:50;;;;;;;3.55;2.30;;;-1.70;56.00;;;;;;4996536;28;20042;-89
2021/12/26 06:44:15;;;;;;;3.58;2.30;;;-1.70;56.70;;;;;;4998102;28;20041;-90
2021/12/26 06:46:41;;;;;;;3.13;2.33;;;-1.70;56.20;;;;;;5001167;28;20065;-89
2021/12/26 06:49:07;;;;;;;2.80;2.40;;;-1.70;55.60;;;;;;4997864;28;20026;-90
2021/12/26 06:51:32;;;;;;;3.00;2.40;;;-1.80;55.80;;;;;;4997118;28;20386;-89
2021/12/26 06:54:01;;;;;;;3.13;2.30;;;-1.90;55.80;;;;;;5002415;28;20315;-90
2021/12/26 06:56:27;;;;;;;3.38;2.25;;;-1.80;56.50;;;;;;5018751;28;20034;-90
2021/12/26 06:58:52;;;;;;;2.53;2.10;;;-1.70;56.90;;;;;;5012503;28;20026;-90
2021/12/26 07:01:18;;;;;;;3.58;2.55;;;-1.60;57.40;;;;;;5001090;28;20478;-89
2021/12/26 07:03:44;;;;;;;3.25;2.35;;;-1.60;57.00;;;;;;4995591;28;20015;-90
2021/12/26 07:06:10;;;;;;;4.72;2.22;;;-1.60;56.90;;;;;;4993772;28;20084;-88
2021/12/26 07:08:36;;;;;;;3.20;2.38;;;-1.50;57.40;;;;;;5003172;28;20018;-89
2021/12/26 07:11:01;;;;;;;2.40;2.20;;;-1.50;57.80;;;;;;5006502;28;20037;-88
2021/12/26 07:13:27;;;;;;;2.53;2.30;;;-1.50;56.80;;;;;;4993549;28;20022;-88
2021/12/26 07:15:52;;;;;;;2.72;2.35;;;-1.50;57.20;;;;;;4992575;28;20034;-88
2021/12/26 07:18:18;;;;;;;2.92;2.30;;;-1.50;57.00;;;;;;4995088;28;20066;-88
2021/12/26 07:20:43;;;;;;;2.40;2.00;;;-1.50;57.40;;;;;;5001801;28;20074;-87
2021/12/26 07:23:09;;;;;;;5.32;2.60;;;-1.30;58.20;;;;;;4996530;28;20109;-90
2021/12/26 07:25:35;;;;;;;3.55;2.40;;;-1.40;57.30;;;;;;4994843;28;20026;-88
2021/12/26 07:28:01;;;;;;;2.53;2.33;;;-1.40;57.10;;;;;;4993373;28;20057;-88
2021/12/26 07:30:26;;;;;;;3.33;2.60;;;-1.30;57.90;;;;;;4996080;28;20021;-89
2021/12/26 07:32:52;;;;;;;3.03;2.45;;;-1.30;57.50;;;;;;4994622;28;20538;-90
2021/12/26 07:35:18;;;;;;;2.83;2.38;;;-1.30;58.10;;;;;;4988799;28;20084;-90
2021/12/26 07:37:43;;;;;;;3.33;2.33;;;-1.20;58.50;;;;;;4996698;28;20040;-90
2021/12/26 07:40:10;;;;;;;3.72;2.40;;;-1.10;59.20;;;;;;4995628;28;20042;-90
2021/12/26 07:42:35;;;;;;;3.92;2.50;;;-1.10;58.90;;;;;;4982593;28;20026;-89
2021/12/26 07:45:01;;;;;;;2.92;2.25;;;-1.00;58.20;;;;;;5004622;28;20169;-89
2021/12/26 07:47:26;;;;;;;2.95;2.30;;;-1.10;58.10;;;;;;4994802;28;20046;-88
2021/12/26 07:49:52;;;;;;;2.40;2.10;;;-1.00;59.00;;;;;;4979408;28;20065;-89
2021/12/26 07:52:22;;;;;;;2.85;2.15;;;-0.90;59.30;;;;;;5000903;28;20724;-90
2021/12/26 07:54:48;;;;;;;2.90;2.15;;;-0.80;58.90;;;;;;5017904;28;20032;-91
2021/12/26 07:57:14;;;;;;;2.78;2.30;;;-0.80;59.00;;;;;;4997623;28;20054;-89
2021/12/26 07:59:40;;;;;;;3.50;2.40;;;-0.80;58.40;;;;;;4997861;28;20484;-90
2021/12/26 08:02:06;;;;;;;3.40;2.30;;;-0.90;58.30;;;;;;5002945;28;20098;-90
2021/12/26 08:04:31;;;;;;;3.28;2.20;;;-0.90;58.60;;;;;;5003128;28;20022;-88
2021/12/26 08:06:58;;;;;;;3.15;2.55;;;-0.90;58.80;;;;;;5008564;28;20524;-89
2021/12/26 08:09:27;;;;;;;3.75;2.38;;;-1.00;58.40;;;;;;4995079;28;20014;-89
2021/12/26 08:11:52;;;;;;;3.00;2.30;;;-1.00;58.00;;;;;;4974905;28;20528;-88
2021/12/26 08:14:18;;;;;;;3.20;2.55;;;-1.20;57.00;;;;;;4983754;28;20022;-88
2021/12/26 08:16:44;;;;;;;3.25;2.60;;;-1.30;56.90;;;;;;5004532;28;20030;-89
2021/12/26 08:19:10;;;;;;;2.40;2.17;;;-1.50;56.60;;;;;;5013948;28;20472;-90
2021/12/26 08:21:35;;;;;;;2.53;2.33;;;-1.60;57.30;;;;;;4994905;28;20117;-89
2021/12/26 08:24:01;;;;;;;3.78;2.80;;;-1.60;57.80;;;;;;5003259;28;20030;-89
2021/12/26 08:26:27;;;;;;;3.63;2.70;;;-1.60;57.60;;;;;;4994396;28;20088;-89
2021/12/26 08:28:53;;;;;;;4.55;2.63;;;-1.60;58.40;;;;;;4992583;28;20400;-85
2021/12/26 08:31:20;;;;;;;3.22;2.50;;;-1.60;58.00;;;;;;4985349;28;20031;-89
2021/12/26 08:33:46;;;;;;;4.07;2.70;;;-1.70;57.90;;;;;;4974488;28;20030;-87
2021/12/26 08:36:12;;;;;;;3.92;3.08;;;-1.60;57.90;;;;;;4995556;28;20030;-88
2021/12/26 08:38:38;;;;;;;2.78;2.40;;;-1.70;57.80;;;;;;4993682;28;20397;-90
2021/12/26 08:41:04;;;;;;;3.28;2.50;;;-1.60;58.20;;;;;;4993521;28;20042;-89
2021/12/26 08:43:29;;;;;;;3.25;2.70;;;-1.60;58.30;;;;;;4985436;28;20030;-90
2021/12/26 08:45:57;;;;;;;3.08;2.72;;;-1.50;58.30;;;;;;4987106;28;20503;-88
2021/12/26 08:48:24;;;;;;;3.85;2.72;;;-1.60;58.00;;;;;;4988307;28;20019;-88
2021/12/26 08:50:55;;;;;;;4.65;2.90;;;-1.60;58.00;;;;;;4982124;28;20065;-88
2021/12/26 08:53:22;;;;;;;4.40;2.60;;;-1.60;58.10;;;;;;4984756;28;20033;-88
2021/12/26 08:55:47;;;;;;;3.47;2.63;;;-1.60;58.30;;;;;;4992328;28;20118;-87
2021/12/26 08:58:13;;;;;;;2.90;2.33;;;-1.50;58.20;;;;;;4988170;28;20133;-88
2021/12/26 09:00:38;;;;;;;4.03;3.00;;;-1.50;58.50;;;;;;4988175;28;20038;-88
2021/12/26 09:03:04;;;;;;;4.03;3.25;;;-1.50;58.50;;;;;;4985910;28;20075;-85
2021/12/26 09:05:30;;;;;;;4.72;2.88;;;-1.50;58.50;;;;;;4982991;28;20034;-86
2021/12/26 09:07:55;;;;;;;2.88;2.40;;;-1.50;58.70;;;;;;4985741;28;20032;-84
2021/12/26 09:10:21;;;;;;;3.33;2.40;;;-1.50;58.90;;;;;;4986293;28;20034;-87
2021/12/26 09:12:47;;;;;;;3.80;2.80;;;-1.40;59.10;;;;;;4984116;28;20117;-85
2021/12/26 09:15:13;;;;;;;4.45;3.30;;;-1.40;59.60;;;;;;4985479;28;20105;-87
2021/12/26 09:17:40;;;;;;;4.00;2.70;;;-1.40;59.10;;;;;;4994441;28;20397;-85
2021/12/26 09:20:07;;;;;;;3.63;2.90;;;-1.40;59.30;;;;;;4985645;28;20416;-86
2021/12/26 09:22:32;;;;;;;4.47;3.08;;;-1.40;59.50;;;;;;4988398;28;20033;-82
2021/12/26 09:25:02;;;;;;;3.78;2.88;;;-1.40;59.70;;;;;;4990622;28;20034;-83
2021/12/26 09:27:28;;;;;;;3.00;2.60;;;-1.30;59.80;;;;;;4991296;28;20030;-82
2021/12/26 09:29:53;;;;;;;3.65;2.60;;;-1.20;59.90;;;;;;4994692;28;20027;-83
2021/12/26 09:32:19;;;;;;;3.92;2.80;;;-1.10;60.10;;;;;;4990285;28;20401;-83
2021/12/26 09:34:44;;;;;;;4.35;3.03;;;-1.10;60.10;;;;;;4987842;28;20034;-81
2021/12/26 09:37:11;;;;;;;3.67;2.88;;;-1.00;60.20;;;;;;4985776;28;20461;-80
2021/12/26 09:39:38;;;;;;;4.18;2.85;;;-1.00;60.20;;;;;;4980503;28;20023;-81
2021/12/26 09:42:04;;;;;;;4.53;3.00;;;-1.00;60.40;;;;;;4981747;28;20030;-82
2021/12/26 09:44:29;;;;;;;4.28;3.30;;;-1.00;60.70;;;;;;4986279;28;20062;-82
2021/12/26 09:46:55;;;;;;;5.25;2.80;;;-0.90;61.00;;;;;;4990780;28;20056;-82
2021/12/26 09:49:21;;;;;;;4.75;3.10;;;-0.90;61.10;;;;;;4984504;28;20034;-81
2021/12/26 09:51:49;;;;;;;3.70;2.88;;;-0.80;61.20;;;;;;4989541;28;20081;-83
2021/12/26 09:54:16;;;;;;;4.40;3.13;;;-0.70;61.40;;;;;;4989167;28;20023;-86
2021/12/26 09:56:41;;;;;;;3.80;2.88;;;-0.70;61.60;;;;;;4984466;28;20554;-85
2021/12/26 09:59:18;;;;;;;3.53;2.83;;;-0.60;61.60;;;;;;4987355;28;20034;-85
2021/12/26 10:01:52;;;;;;;2.97;2.67;;;-0.60;61.70;;;;;;4990656;28;20559;-86
2021/12/26 10:04:22;;;;;;;4.35;2.97;;;-0.40;61.80;;;;;;5005965;28;20033;-84
2021/12/26 10:07:03;;;;;;;3.28;2.83;;;-0.40;61.80;;;;;;4991377;28;20026;-84
2021/12/26 10:09:29;;;;;;;3.67;3.10;;;-0.30;62.00;;;;;;4985133;28;20358;-84
2021/12/26 10:11:57;;;;;;;4.32;3.10;;;-0.30;62.10;;;;;;4986601;28;20474;-84
2021/12/26 10:14:29;;;;;;;3.60;2.80;;;-0.30;62.10;;;;;;4986037;28;20081;-84
2021/12/26 10:17:17;;;;;;;3.97;3.10;;;-0.20;62.20;;;;;;4992567;28;20030;-85
2021/12/26 10:19:45;;;;;;;3.90;2.80;;;-0.10;62.20;;;;;;4993774;28;20027;-85
2021/12/26 10:22:14;;;;;;;4.65;3.50;;;-0.10;62.20;;;;;;4992547;28;20039;-85
2021/12/26 10:24:42;;;;;;;4.35;3.35;;;-0.10;62.40;;;;;;4992988;28;20025;-85
2021/12/26 10:27:11;;;;;;;5.25;3.33;;;0.00;62.60;;;;;;4990031;28;20433;-84
2021/12/26 10:29:46;;;;;;;6.00;3.45;;;0.00;62.70;;;;;;4989402;28;20033;-83
2021/12/26 10:32:13;;;;;;;4.47;3.22;;;0.00;62.70;;;;;;4986756;28;20026;-83
2021/12/26 10:34:49;;;;;;;4.63;3.20;;;0.00;62.70;;;;;;4988496;28;20030;-82
2021/12/26 10:37:24;;;;;;;5.30;4.00;;;0.10;62.90;;;;;;4991106;28;20042;-82
2021/12/26 10:39:53;;;;;;;4.68;3.08;;;0.10;63.00;;;;;;4992105;28;20037;-82
2021/12/26 10:42:22;;;;;;;5.32;3.40;;;0.10;63.10;;;;;;4992916;28;20038;-82
2021/12/26 10:44:55;;;;;;;3.92;2.88;;;0.20;63.20;;;;;;4990639;28;20019;-82
2021/12/26 10:47:28;;;;;;;4.80;3.60;;;0.20;63.10;;;;;;4989777;28;20061;-82
2021/12/26 10:49:59;;;;;;;4.70;3.08;;;0.30;63.20;;;;;;4993217;28;20025;-82
2021/12/26 10:52:30;;;;;;;5.00;3.85;;;0.40;63.30;;;;;;4990349;28;20113;-82
2021/12/26 10:55:06;;;;;;;3.83;3.05;;;0.40;63.40;;;;;;4986850;28;20109;-82
2021/12/26 10:57:42;;;;;;;4.60;3.45;;;0.40;63.50;;;;;;4989345;28;20405;-81
2021/12/26 11:00:30;;;;;;;4.65;3.60;;;0.40;63.60;;;;;;4986883;28;20035;-81
2021/12/26 11:03:04;;;;;;;6.35;4.35;;;0.50;63.70;;;;;;4986084;28;20031;-82
2021/12/26 11:05:38;;;;;;;5.05;3.47;;;0.50;64.50;;;;;;4985017;28;20034;-81
2021/12/26 11:08:11;;;;;;;4.93;3.85;;;0.60;64.10;;;;;;4988721;28;20018;-82
2021/12/26 11:10:37;;;;;;;4.90;3.63;;;0.60;64.10;;;;;;4987123;28;20031;-84
2021/12/26 11:13:05;;;;;;;5.60;4.18;;;0.60;64.10;;;;;;4988572;28;20021;-82
2021/12/26 11:15:39;;;;;;;5.28;4.10;;;0.70;64.10;;;;;;4984976;28;20042;-81
2021/12/26 11:18:07;;;;;;;6.75;4.57;;;0.70;64.30;;;;;;4991577;28;20505;-82
2021/12/26 11:20:54;;;;;;;5.35;4.05;;;0.70;64.40;;;;;;4988948;28;20481;-82
2021/12/26 11:23:22;;;;;;;5.45;3.75;;;0.70;64.60;;;;;;4982268;28;20022;-82
2021/12/26 11:25:59;;;;;;;5.90;3.83;;;0.80;64.70;;;;;;4986297;28;20520;-82
2021/12/26 11:28:29;;;;;;;5.18;4.13;;;0.90;64.90;;;;;;4984109;28;20089;-82
2021/12/26 11:31:00;;;;;;;5.00;3.67;;;0.90;65.10;;;;;;4983968;28;20076;-82
2021/12/26 11:33:27;;;;;;;4.97;3.80;;;1.00;65.10;;;;;;4981970;28;20109;-82
2021/12/26 11:35:54;;;;;;;6.50;4.50;;;1.00;65.40;;;;;;4989242;28;20049;-82
2021/12/26 11:38:22;;;;;;;5.53;3.85;;;1.00;65.60;;;;;;4984615;28;20474;-82
2021/12/26 11:40:51;;;;;;;8.48;5.07;;;1.10;65.60;;;;;;4976833;28;20477;-82
2021/12/26 11:43:44;;;;;;;5.72;4.20;;;1.10;65.40;;;;;;4982803;28;20042;-82
2021/12/26 11:46:21;;;;;;;6.05;4.57;;;1.10;66.10;;;;;;4988414;28;20022;-82
2021/12/26 11:49:15;;;;;;;5.82;4.25;;;1.10;65.50;;;;;;4996586;28;20057;-82
2021/12/26 11:52:02;;;;;;;6.38;4.40;;;1.10;65.60;;;;;;4993940;28;20505;-82
2021/12/26 11:54:51;;;;;;;4.70;3.40;;;1.20;65.70;;;;;;5000777;28;20029;-82
2021/12/26 11:57:54;;;;;;;6.85;4.22;;;1.30;65.80;;;;;;4991230;28;20050;-83
2021/12/26 12:00:37;;;;;;;6.07;3.92;;;1.40;65.90;;;;;;4980736;28;20519;-81
2021/12/26 12:03:06;;;;;;;5.72;4.18;;;1.50;65.90;;;;;;4987345;28;20018;-81
2021/12/26 12:05:38;;;;;;;6.13;4.18;;;1.50;66.00;;;;;;4983947;28;20096;-82
2021/12/26 12:08:07;;;;;;;7.57;4.78;;;1.60;66.20;;;;;;4998423;28;20014;-81
2021/12/26 12:10:51;;;;;;;5.55;4.03;;;1.50;66.20;;;;;;4985805;28;20373;-82
2021/12/26 12:13:22;;;;;;;8.38;5.40;;;1.60;66.40;;;;;;4987038;28;20058;-84
2021/12/26 12:15:59;;;;;;;7.47;5.03;;;1.60;66.50;;;;;;4997058;28;20034;-83
2021/12/26 12:18:30;;;;;;;7.63;5.32;;;1.60;66.60;;;;;;4993169;28;20054;-84
2021/12/26 12:21:22;;;;;;;6.90;4.97;;;1.60;66.90;;;;;;4994526;28;20041;-84
2021/12/26 12:24:13;;;;;;;6.78;4.72;;;1.70;67.00;;;;;;4989589;28;20098;-83
2021/12/26 12:26:56;;;;;;;8.48;5.72;;;1.70;67.20;;;;;;4993008;28;20477;-84
2021/12/26 12:29:21;;;;;;;6.22;4.80;;;1.70;67.70;;;;;;4992758;28;20105;-84
2021/12/26 12:31:47;;;;;;;6.07;4.63;;;1.70;67.80;;;;;;4991899;28;20161;-89
2021/12/26 12:34:13;;;;;;;4.53;3.60;;;1.70;67.60;;;;;;4982379;28;20027;-84
2021/12/26 12:36:42;;;;;;;6.82;4.60;;;1.80;67.40;;;;;;4993393;28;20057;-83
2021/12/26 12:39:23;;;;;;;7.28;5.40;;;1.90;67.40;;;;;;4997708;28;20022;-83
2021/12/26 12:41:51;;;;;;;7.03;4.70;;;1.80;67.30;;;;;;4995771;28;20038;-84
2021/12/26 12:44:33;;;;;;;7.25;4.35;;;1.80;67.50;;;;;;5001530;28;20030;-84
2021/12/26 12:46:59;;;;;;;6.45;4.38;;;1.80;67.60;;;;;;4997189;28;20091;-83
2021/12/26 12:49:48;;;;;;;6.35;4.85;;;1.80;67.50;;;;;;4992170;28;20026;-83
2021/12/26 12:52:37;;;;;;;6.47;4.97;;;1.80;67.50;;;;;;4994188;28;20033;-83
2021/12/26 12:55:09;;;;;;;5.78;4.28;;;1.70;67.50;;;;;;4992453;28;20178;-84
2021/12/26 12:57:44;;;;;;;5.40;4.23;;;1.80;67.70;;;;;;4995202;28;20101;-83
2021/12/26 13:00:25;;;;;;;8.80;5.32;;;1.80;67.70;;;;;;4987092;28;20037;-83